This is the latest recevied weather packets stored in our database for station/object G6FJI-13. If no packets are shown the sender has not sent any weather packets the latest 10 day(s).
| Time | Temp. | Humidity | Pressure | Rain* | Wind** | Luminosity | Snow |
|---|---|---|---|---|---|---|---|
| 1777428743 | 6.67° C | 85% | 1027.7 hPa | 0 mm | - | 0 W/m² | - |
| 1777425789 | 6.67° C | 82% | 1027.8 hPa | 0 mm | - | 0 W/m² | - |
| 1777424590 | 6.67° C | 81% | 1028.3 hPa | 0 mm | - | 0 W/m² | - |
| 1777423946 | 6.67° C | 80% | 1028.2 hPa | 0 mm | - | 0 W/m² | - |
| 1777419150 | 7.22° C | 77% | 1028.3 hPa | 0 mm | - | 0 W/m² | - |
| 1777416092 | 7.22° C | 77% | 1028.4 hPa | 0 mm | - | 0 W/m² | - |
| 1777412515 | 8.33° C | 73% | 1028.6 hPa | 0 mm | - | 0 W/m² | - |
| 1777406527 | 10° C | 70% | 1028 hPa | 0 mm | - | 0 W/m² | - |
| 1777401126 | 12.22° C | 68% | 1027.4 hPa | 0 mm | - | 13 W/m² | - |
| 1777399907 | 12.78° C | 67% | 1027.3 hPa | 0 mm | - | 17 W/m² | - |
| 1777397488 | 13.33° C | 65% | 1027 hPa | 0 mm | - | 28 W/m² | - |
| 1777393343 | 13.33° C | 62% | 1027 hPa | 0 mm | - | 71 W/m² | - |
| 1777392692 | 13.89° C | 61% | 1027.2 hPa | 0 mm | - | 91 W/m² | - |
| 1777385498 | 13.89° C | 63% | 1027.5 hPa | 0 mm | - | 585 W/m² | - |
| 1777376428 | 10° C | 82% | 1029.1 hPa | 0 mm | - | 54 W/m² | - |
| 1777373365 | 10° C | 85% | 1029.1 hPa | 0 mm | - | 45 W/m² | - |
| 1777366726 | 10° C | 85% | 1028.4 hPa | 0 mm | - | 52 W/m² | - |
| 1777366082 | 10° C | 86% | 1028.6 hPa | 0 mm | - | 105 W/m² | - |
| 1777363049 | 9.44° C | 87% | 1028.6 hPa | 0 mm | - | 31 W/m² | - |
| 1777362405 | 9.44° C | 87% | 1028.6 hPa | 0 mm | - | 40 W/m² | - |
| 1777361849 | 9.44° C | 87% | 1028.4 hPa | 0 mm | - | 25 W/m² | - |
| 1777360670 | 9.44° C | 87% | 1028.3 hPa | 0 mm | - | 29 W/m² | - |
| 1777360007 | 9.44° C | 87% | 1028.2 hPa | 0 mm | - | 41 W/m² | - |
| 1777353947 | 8.89° C | 96% | 1027.3 hPa | 0 mm | - | 1 W/m² | - |
| 1777352191 | 8.89° C | 96% | 1027.2 hPa | 0 mm | - | 0 W/m² | - |
* Rain latest hour (hover to see other rain measurements)
** Current wind speed in m/s (hover to see current wind gust speed)